createdAt,value
2017-10-15T00:01:53.399Z,61.50
2017-10-15T00:05:18.508Z,61.50
2017-10-15T00:08:43.600Z,61.50
2017-10-15T00:12:09.830Z,61.50
2017-10-15T00:15:35.006Z,61.50
2017-10-15T00:19:00.884Z,61.50
2017-10-15T00:22:27.434Z,61.50
2017-10-15T00:25:52.535Z,61.50
2017-10-15T00:29:21.130Z,61.50
2017-10-15T00:32:59.116Z,61.40
2017-10-15T00:36:24.304Z,61.50
2017-10-15T00:39:49.464Z,61.50
2017-10-15T00:43:16.344Z,61.50
2017-10-15T00:46:41.515Z,61.40
2017-10-15T00:50:07.394Z,61.60
2017-10-15T00:53:34.245Z,61.60
2017-10-15T00:57:01.343Z,61.60
2017-10-15T01:00:26.925Z,61.50
2017-10-15T01:03:56.942Z,61.60
2017-10-15T01:07:23.077Z,62.30
2017-10-15T01:10:48.387Z,61.60
2017-10-15T01:14:30.205Z,61.50
2017-10-15T01:17:56.490Z,61.50
2017-10-15T01:21:21.909Z,61.60
2017-10-15T01:24:47.660Z,61.40
2017-10-15T01:28:12.944Z,61.50
2017-10-15T01:31:38.328Z,61.40
2017-10-15T01:35:03.588Z,61.50
2017-10-15T01:38:28.852Z,61.50
2017-10-15T01:41:59.152Z,61.50
2017-10-15T01:45:25.271Z,61.50
2017-10-15T01:48:50.475Z,61.60
2017-10-15T01:52:18.031Z,61.50
2017-10-15T01:55:43.539Z,61.40
2017-10-15T01:59:08.811Z,61.40
2017-10-15T02:02:47.592Z,61.40
2017-10-15T02:06:12.853Z,61.30
2017-10-15T02:09:38.040Z,61.40
2017-10-15T02:17:22.459Z,61.30
2017-10-15T02:20:48.741Z,61.40
2017-10-15T02:24:14.690Z,61.30
2017-10-15T02:27:51.140Z,61.40
2017-10-15T02:31:16.636Z,61.30
2017-10-15T02:34:41.824Z,61.30
2017-10-15T02:38:11.640Z,61.30
2017-10-15T02:41:38.032Z,61.40
2017-10-15T02:45:03.177Z,61.30
2017-10-15T02:48:28.718Z,61.20
2017-10-15T02:51:54.656Z,61.30
2017-10-15T02:55:20.235Z,61.30
2017-10-15T02:58:53.477Z,61.20
2017-10-15T03:02:20.259Z,61.20
2017-10-15T03:05:56.596Z,61.20
2017-10-15T03:09:21.911Z,61.20
2017-10-15T03:12:47.102Z,61.20
2017-10-15T03:20:11.859Z,61.30
2017-10-15T03:23:38.031Z,61.30
2017-10-15T03:27:04.206Z,61.20
2017-10-15T03:30:30.981Z,61.30
2017-10-15T03:33:56.179Z,61.30
2017-10-15T03:37:22.268Z,61.20
2017-10-15T03:44:36.377Z,61.30
2017-10-15T03:48:01.545Z,61.10
2017-10-15T03:51:37.717Z,61.10
2017-10-15T03:55:03.649Z,61.20
2017-10-15T03:58:28.882Z,61.10
2017-10-15T04:02:06.571Z,61.20
2017-10-15T04:05:31.759Z,61.10
2017-10-15T04:08:57.381Z,61.20
2017-10-15T04:16:14.908Z,61.20
2017-10-15T04:19:40.222Z,61.10
2017-10-15T04:23:25.323Z,61.20
2017-10-15T04:26:50.464Z,61.20
2017-10-15T04:30:15.645Z,61.20
2017-10-15T04:33:52.132Z,61.20
2017-10-15T04:37:17.379Z,61.10
2017-10-15T04:40:43.489Z,61.00
2017-10-15T04:44:27.726Z,61.00
2017-10-15T04:47:53.699Z,61.10
2017-10-15T04:51:19.050Z,61.20
2017-10-15T04:54:49.022Z,61.20
2017-10-15T04:58:14.084Z,61.10
2017-10-15T05:01:39.299Z,61.20
2017-10-15T05:05:08.703Z,61.10
2017-10-15T05:08:33.994Z,61.10
2017-10-15T05:11:59.991Z,61.10
2017-10-15T05:15:49.628Z,61.10
2017-10-15T05:19:14.740Z,61.10
2017-10-15T05:22:40.028Z,61.10
2017-10-15T05:26:05.960Z,61.10
2017-10-15T05:29:32.602Z,61.00
2017-10-15T05:33:12.271Z,61.00
2017-10-15T05:36:38.547Z,61.00
2017-10-15T05:40:03.832Z,61.00
2017-10-15T05:43:46.887Z,60.80
2017-10-15T05:47:12.470Z,61.00
2017-10-15T05:50:39.536Z,61.00
2017-10-15T05:54:07.154Z,60.90
2017-10-15T05:57:32.712Z,61.00
2017-10-15T06:00:58.215Z,60.90
2017-10-15T06:04:43.719Z,60.90
2017-10-15T06:08:08.850Z,60.90
2017-10-15T06:11:41.325Z,60.90
2017-10-15T06:15:06.516Z,60.90
2017-10-15T06:18:32.519Z,59.50
2017-10-15T06:22:01.528Z,59.50
2017-10-15T06:25:27.436Z,58.10
2017-10-15T06:28:52.701Z,58.00
2017-10-15T06:32:18.260Z,57.20
2017-10-15T06:35:43.534Z,56.60
2017-10-15T06:39:09.157Z,55.80
2017-10-15T06:42:34.783Z,55.50
2017-10-15T06:45:59.926Z,55.00
2017-10-15T06:49:25.275Z,54.50
2017-10-15T06:52:52.042Z,54.20
2017-10-15T06:56:17.513Z,53.70
2017-10-15T06:59:42.774Z,53.20
2017-10-15T07:10:58.451Z,52.30
2017-10-15T07:14:23.601Z,52.30
2017-10-15T07:17:52.853Z,51.90
2017-10-15T07:21:18.850Z,51.90
2017-10-15T07:24:43.971Z,51.90
2017-10-15T07:28:18.924Z,52.10
2017-10-15T07:31:44.127Z,51.80
2017-10-15T07:35:09.371Z,51.40
2017-10-15T07:38:41.072Z,51.70
2017-10-15T07:42:06.377Z,51.60
2017-10-15T07:45:31.582Z,51.80
2017-10-15T07:49:07.320Z,51.90
2017-10-15T07:52:32.532Z,51.90
2017-10-15T07:55:57.683Z,52.20
2017-10-15T07:59:26.144Z,52.40
2017-10-15T08:02:53.763Z,52.30
2017-10-15T08:06:18.931Z,53.10
2017-10-15T08:09:56.859Z,53.20
2017-10-15T08:13:22.792Z,53.10
2017-10-15T08:16:48.445Z,53.10
2017-10-15T08:20:17.654Z,53.50
2017-10-15T08:23:43.239Z,53.70
2017-10-15T08:27:09.282Z,54.40
2017-10-15T08:30:34.454Z,54.30
2017-10-15T08:33:59.616Z,54.70
2017-10-15T08:37:25.346Z,54.80
2017-10-15T08:40:52.975Z,55.10
2017-10-15T08:44:18.171Z,55.90
2017-10-15T08:47:46.384Z,55.80
2017-10-15T08:51:14.765Z,56.20
2017-10-15T08:54:40.689Z,56.40
2017-10-15T08:58:06.761Z,56.70
2017-10-15T09:01:38.376Z,56.70
2017-10-15T09:05:04.589Z,57.20
2017-10-15T09:08:30.177Z,57.20
2017-10-15T09:11:58.063Z,57.20
2017-10-15T09:15:23.264Z,57.40
2017-10-15T09:18:48.464Z,57.50
2017-10-15T09:22:13.776Z,57.70
2017-10-15T09:25:39.386Z,57.90
2017-10-15T09:29:11.007Z,57.90
2017-10-15T09:32:38.313Z,58.00
2017-10-15T09:36:04.738Z,58.20
2017-10-15T09:39:35.484Z,58.40
2017-10-15T09:43:01.427Z,58.40
2017-10-15T09:46:26.808Z,58.50
2017-10-15T09:50:03.084Z,58.70
2017-10-15T09:53:29.815Z,58.80
2017-10-15T09:56:55.193Z,58.70
2017-10-15T10:00:21.878Z,58.90
2017-10-15T10:03:47.509Z,59.00
2017-10-15T10:07:12.704Z,59.00
2017-10-15T10:10:47.992Z,59.10
2017-10-15T10:14:13.164Z,59.00
2017-10-15T10:17:39.072Z,59.10
2017-10-15T10:21:05.875Z,60.10
2017-10-15T10:24:31.917Z,60.50
2017-10-15T10:27:57.164Z,60.60
2017-10-15T10:31:23.811Z,61.10
2017-10-15T10:34:50.232Z,61.30
2017-10-15T10:38:19.488Z,61.20
2017-10-15T10:41:45.006Z,61.30
2017-10-15T10:45:10.717Z,61.20
2017-10-15T10:48:44.098Z,61.40
2017-10-15T10:52:19.173Z,61.40
2017-10-15T10:55:47.413Z,61.20
2017-10-15T10:59:22.811Z,61.40
2017-10-15T11:02:48.104Z,61.40
2017-10-15T11:06:13.332Z,61.60
2017-10-15T11:09:39.717Z,61.80
2017-10-15T11:13:05.064Z,61.80
2017-10-15T11:16:41.061Z,62.00
2017-10-15T11:20:09.801Z,62.50
2017-10-15T11:23:35.779Z,62.30
2017-10-15T11:27:13.931Z,62.60
2017-10-15T11:30:40.118Z,62.70
2017-10-15T11:34:06.108Z,62.50
2017-10-15T11:37:32.587Z,62.30
2017-10-15T11:40:58.017Z,62.30
2017-10-15T11:44:26.883Z,62.10
2017-10-15T11:48:13.005Z,61.90
2017-10-15T11:52:06.794Z,61.90
2017-10-15T11:55:32.091Z,62.00
2017-10-15T11:58:57.337Z,61.70
2017-10-15T12:02:23.289Z,61.50
2017-10-15T12:05:52.106Z,61.10
2017-10-15T12:09:19.802Z,61.10
2017-10-15T12:12:47.384Z,60.80
2017-10-15T12:16:13.137Z,60.40
2017-10-15T12:19:38.457Z,60.10
2017-10-15T12:23:25.129Z,59.50
2017-10-15T12:26:57.880Z,59.60
2017-10-15T12:30:23.119Z,59.20
2017-10-15T12:33:48.858Z,59.10
2017-10-15T12:37:16.921Z,59.10
2017-10-15T12:40:44.311Z,59.10
2017-10-15T12:44:15.057Z,59.00
2017-10-15T12:47:43.672Z,58.80
2017-10-15T12:51:09.038Z,58.80
2017-10-15T12:54:48.306Z,58.70
2017-10-15T12:58:14.720Z,58.60
2017-10-15T13:01:41.268Z,58.60
2017-10-15T13:05:07.817Z,58.40
2017-10-15T13:08:34.173Z,58.90
2017-10-15T13:12:00.681Z,58.10
2017-10-15T13:15:27.482Z,58.10
2017-10-15T13:18:52.751Z,58.00
2017-10-15T13:22:19.703Z,57.80
2017-10-15T13:25:49.903Z,57.40
2017-10-15T13:29:15.085Z,57.40
2017-10-15T13:32:40.324Z,57.10
2017-10-15T13:36:13.415Z,57.00
2017-10-15T13:39:38.661Z,56.80
2017-10-15T13:43:03.926Z,56.60
2017-10-15T13:46:29.627Z,56.40
2017-10-15T13:49:54.840Z,56.20
2017-10-15T13:53:33.280Z,55.80
2017-10-15T13:57:00.730Z,55.80
2017-10-15T14:00:37.315Z,55.70
2017-10-15T14:04:35.743Z,55.60
2017-10-15T14:08:16.950Z,55.50
2017-10-15T14:11:45.903Z,55.20
2017-10-15T14:15:11.139Z,55.20
2017-10-15T14:18:50.604Z,55.00
2017-10-15T14:22:16.708Z,54.80
2017-10-15T14:25:48.348Z,54.70
2017-10-15T14:29:14.143Z,54.60
2017-10-15T14:32:40.259Z,54.50
2017-10-15T14:36:22.088Z,54.40
2017-10-15T14:39:47.565Z,54.40
2017-10-15T14:43:13.083Z,54.20
2017-10-15T14:46:40.423Z,54.10
2017-10-15T14:50:11.626Z,53.80
2017-10-15T14:53:50.192Z,53.90
2017-10-15T14:57:19.037Z,53.70
2017-10-15T15:01:27.060Z,53.80
2017-10-15T15:05:04.672Z,53.70
2017-10-15T15:12:23.788Z,53.70
2017-10-15T15:20:02.448Z,54.20
2017-10-15T15:23:44.007Z,55.10
2017-10-15T15:27:25.229Z,55.00
2017-10-15T15:31:08.635Z,55.30
2017-10-15T15:38:42.997Z,55.70
2017-10-15T15:42:10.422Z,55.90
2017-10-15T15:45:39.053Z,55.80
2017-10-15T15:49:18.948Z,55.90
2017-10-15T15:56:49.316Z,56.20
2017-10-15T16:00:32.733Z,56.40
2017-10-15T16:04:08.557Z,56.30
2017-10-15T16:08:23.045Z,56.40
2017-10-15T16:11:56.233Z,56.50
2017-10-15T16:15:24.488Z,56.60
2017-10-15T16:19:06.521Z,56.70
2017-10-15T16:22:46.833Z,56.80
2017-10-15T16:26:21.741Z,56.80
2017-10-15T16:29:47.797Z,57.00
2017-10-15T16:33:16.552Z,57.10
2017-10-15T16:36:47.468Z,57.10
2017-10-15T16:40:12.948Z,57.10
2017-10-15T16:43:38.857Z,57.20
2017-10-15T16:47:07.233Z,57.40
2017-10-15T16:50:33.117Z,57.30
2017-10-15T16:54:00.147Z,57.30
2017-10-15T16:57:29.158Z,57.40
2017-10-15T17:01:04.605Z,57.50
2017-10-15T17:04:33.825Z,57.20
2017-10-15T17:08:01.996Z,57.20
2017-10-15T17:11:29.204Z,56.90
2017-10-15T17:15:02.352Z,57.60
2017-10-15T17:18:33.531Z,56.60
2017-10-15T17:26:01.254Z,55.00
2017-10-15T17:29:40.854Z,55.00
2017-10-15T17:33:10.633Z,54.80
2017-10-15T17:36:39.420Z,53.80
2017-10-15T17:40:13.836Z,53.70
2017-10-15T17:43:51.619Z,53.70
2017-10-15T17:47:16.984Z,53.50
2017-10-15T17:50:47.527Z,53.10
2017-10-15T17:54:20.170Z,53.10
2017-10-15T17:57:47.928Z,53.20
2017-10-15T18:01:13.421Z,53.20
2017-10-15T18:04:39.012Z,53.10
2017-10-15T18:08:10.591Z,53.20
2017-10-15T18:11:38.010Z,53.50
2017-10-15T18:15:04.617Z,53.50
2017-10-15T18:18:51.779Z,53.80
2017-10-15T18:22:17.543Z,54.00
2017-10-15T18:25:43.586Z,54.20
2017-10-15T18:29:31.194Z,54.20
2017-10-15T18:32:58.182Z,54.90
2017-10-15T18:36:29.696Z,54.80
2017-10-15T18:39:55.863Z,55.10
2017-10-15T18:43:21.877Z,55.60
2017-10-15T18:47:12.131Z,56.10
2017-10-15T18:50:37.545Z,55.50
2017-10-15T19:52:46.086Z,53.10
2017-10-15T19:56:11.664Z,53.10
2017-10-15T19:59:38.305Z,52.90
2017-10-15T20:03:04.530Z,52.90
2017-10-15T20:06:30.241Z,52.80
2017-10-15T20:09:56.821Z,52.90
2017-10-15T20:13:22.744Z,52.80
2017-10-15T20:16:48.534Z,52.50
2017-10-15T20:20:15.163Z,52.60
2017-10-15T20:23:40.721Z,52.50
2017-10-15T20:27:06.242Z,52.60
2017-10-15T20:30:32.251Z,52.60
2017-10-15T20:33:58.708Z,53.00
2017-10-15T20:37:24.059Z,52.90
2017-10-15T20:40:50.865Z,53.10
2017-10-15T20:44:16.670Z,53.30
2017-10-15T20:47:42.311Z,53.50
2017-10-15T20:51:13.812Z,53.70
2017-10-15T20:54:39.898Z,54.00
2017-10-15T20:58:05.453Z,54.10
2017-10-15T21:01:31.912Z,54.20
2017-10-15T21:05:00.244Z,54.60
2017-10-15T21:08:25.893Z,54.50
2017-10-15T21:11:52.595Z,54.70
2017-10-15T21:15:20.153Z,55.50
2017-10-15T21:18:45.785Z,55.10
2017-10-15T21:22:11.833Z,55.30
2017-10-15T21:25:38.607Z,55.90
2017-10-15T21:29:03.974Z,55.80
2017-10-15T21:32:30.710Z,56.30
2017-10-15T21:35:57.735Z,56.30
2017-10-15T21:39:23.686Z,56.30
2017-10-15T21:42:49.130Z,56.60
2017-10-15T22:00:13.406Z,56.60
2017-10-15T22:03:38.681Z,57.10
2017-10-15T22:07:08.977Z,57.30
2017-10-15T22:10:34.744Z,57.50
2017-10-15T22:14:00.311Z,57.60
2017-10-15T22:17:28.169Z,57.70
2017-10-15T22:20:58.008Z,57.80
2017-10-15T22:24:23.486Z,57.90
2017-10-15T22:27:49.525Z,58.10
2017-10-15T22:31:14.926Z,58.10
2017-10-15T22:34:40.552Z,58.20
2017-10-15T22:38:06.436Z,58.20
2017-10-15T22:41:32.110Z,58.30
2017-10-15T22:44:58.425Z,58.50
2017-10-15T22:48:24.250Z,58.50
2017-10-15T22:51:49.866Z,58.60
2017-10-15T22:55:16.000Z,58.70
2017-10-15T22:58:41.718Z,58.70
2017-10-15T23:02:08.687Z,58.90
2017-10-15T23:05:34.050Z,58.90
2017-10-15T23:09:01.143Z,59.00
2017-10-15T23:12:26.537Z,59.10
2017-10-15T23:15:51.964Z,59.20
2017-10-15T23:19:17.706Z,59.10
2017-10-15T23:22:43.101Z,59.20
2017-10-15T23:26:08.401Z,59.40
2017-10-15T23:29:34.653Z,59.40
2017-10-15T23:33:00.761Z,59.50
2017-10-15T23:36:26.405Z,59.50
2017-10-15T23:39:52.544Z,59.50
2017-10-15T23:43:18.000Z,59.50
2017-10-15T23:46:43.787Z,59.50
2017-10-15T23:50:12.356Z,59.70
2017-10-15T23:53:41.277Z,59.60
2017-10-15T23:57:07.640Z,59.60
